createdAt,value
2022-11-24T00:02:29.159Z,6.90
2022-11-24T00:05:15.305Z,6.90
2022-11-24T00:08:01.570Z,6.90
2022-11-24T00:10:47.259Z,6.80
2022-11-24T00:13:33.301Z,6.70
2022-11-24T00:16:20.328Z,6.70
2022-11-24T00:19:09.184Z,6.70
2022-11-24T00:21:55.039Z,6.80
2022-11-24T00:24:41.088Z,6.70
2022-11-24T00:27:26.647Z,6.80
2022-11-24T00:30:12.884Z,6.70
2022-11-24T00:32:59.106Z,6.70
2022-11-24T00:35:44.622Z,6.70
2022-11-24T00:38:30.639Z,6.70
2022-11-24T00:41:16.892Z,6.70
2022-11-24T00:44:03.044Z,6.60
2022-11-24T00:46:48.883Z,6.70
2022-11-24T00:49:36.082Z,6.70
2022-11-24T00:52:21.985Z,6.70
2022-11-24T00:55:08.261Z,6.70
2022-11-24T00:57:53.709Z,6.70
2022-11-24T01:00:39.772Z,6.60
2022-11-24T01:03:26.162Z,6.60
2022-11-24T01:06:24.162Z,6.60
2022-11-24T01:09:11.951Z,6.60
2022-11-24T01:12:04.078Z,6.60
2022-11-24T01:14:49.755Z,6.50
2022-11-24T01:17:35.439Z,6.40
2022-11-24T01:20:20.808Z,6.50
2022-11-24T01:23:06.615Z,6.40
2022-11-24T01:25:52.591Z,6.50
2022-11-24T01:28:40.659Z,6.40
2022-11-24T01:31:30.582Z,6.40
2022-11-24T01:34:16.186Z,6.40
2022-11-24T01:37:02.154Z,6.30
2022-11-24T01:39:47.966Z,6.30
2022-11-24T01:42:47.500Z,6.30
2022-11-24T01:45:36.947Z,6.20
2022-11-24T01:48:38.751Z,6.30
2022-11-24T01:51:28.545Z,6.20
2022-11-24T01:54:40.931Z,6.10
2022-11-24T01:58:04.418Z,6.10
2022-11-24T02:00:51.040Z,6.00
2022-11-24T02:03:40.182Z,6.00
2022-11-24T02:06:32.343Z,6.00
2022-11-24T02:09:40.965Z,6.00
2022-11-24T02:12:28.027Z,6.00
2022-11-24T02:15:19.195Z,6.00
2022-11-24T02:18:05.713Z,6.00
2022-11-24T02:20:51.467Z,6.10
2022-11-24T02:23:41.895Z,6.00
2022-11-24T02:26:41.840Z,6.00
2022-11-24T02:29:28.094Z,6.10
2022-11-24T02:32:14.636Z,6.00
2022-11-24T02:35:06.915Z,6.00
2022-11-24T02:37:52.715Z,6.00
2022-11-24T02:40:39.333Z,6.00
2022-11-24T02:43:26.065Z,6.10
2022-11-24T02:46:12.343Z,6.00
2022-11-24T02:48:59.144Z,5.90
2022-11-24T02:51:45.208Z,5.90
2022-11-24T02:54:31.050Z,5.80
2022-11-24T02:57:17.316Z,5.80
2022-11-24T03:00:03.859Z,5.80
2022-11-24T03:02:50.633Z,5.70
2022-11-24T03:05:36.275Z,5.60
2022-11-24T03:08:22.925Z,5.60
2022-11-24T03:11:08.669Z,5.50
2022-11-24T03:13:54.867Z,5.40
2022-11-24T03:16:41.162Z,5.50
2022-11-24T03:19:26.994Z,5.50
2022-11-24T03:22:13.908Z,5.40
2022-11-24T03:25:01.032Z,5.40
2022-11-24T03:27:47.157Z,5.50
2022-11-24T03:30:33.099Z,5.40
2022-11-24T03:33:18.811Z,5.30
2022-11-24T03:36:05.659Z,5.20
2022-11-24T03:38:51.541Z,5.30
2022-11-24T03:41:37.486Z,5.30
2022-11-24T03:44:23.346Z,5.30
2022-11-24T03:47:10.893Z,5.20
2022-11-24T03:49:56.417Z,5.20
2022-11-24T03:52:42.237Z,5.20
2022-11-24T03:55:28.227Z,5.20
2022-11-24T03:58:14.063Z,5.20
2022-11-24T04:01:00.056Z,5.20
2022-11-24T04:03:45.583Z,5.20
2022-11-24T04:06:31.112Z,5.30
2022-11-24T04:09:17.273Z,5.20
2022-11-24T04:12:22.800Z,5.20
2022-11-24T04:15:09.179Z,5.20
2022-11-24T04:17:56.648Z,5.20
2022-11-24T04:20:43.090Z,5.20
2022-11-24T04:23:28.697Z,5.20
2022-11-24T04:26:15.523Z,5.20
2022-11-24T04:29:01.665Z,5.10
2022-11-24T04:31:47.453Z,5.10
2022-11-24T04:34:33.843Z,5.10
2022-11-24T04:37:20.095Z,5.10
2022-11-24T04:40:07.618Z,5.20
2022-11-24T04:42:56.019Z,5.20
2022-11-24T04:45:42.258Z,5.30
2022-11-24T04:48:29.254Z,5.20
2022-11-24T04:51:15.535Z,5.20
2022-11-24T04:54:01.095Z,5.20
2022-11-24T04:56:51.684Z,5.30
2022-11-24T04:59:37.204Z,5.20
2022-11-24T05:02:23.455Z,5.20
2022-11-24T05:05:09.775Z,5.20
2022-11-24T05:07:55.410Z,5.20
2022-11-24T05:10:41.649Z,5.30
2022-11-24T05:13:27.669Z,5.30
2022-11-24T05:16:13.907Z,5.30
2022-11-24T05:18:59.654Z,5.30
2022-11-24T05:21:45.027Z,5.20
2022-11-24T05:24:31.547Z,5.30
2022-11-24T05:27:17.976Z,5.30
2022-11-24T05:30:05.121Z,5.30
2022-11-24T05:32:50.796Z,5.30
2022-11-24T05:35:37.113Z,5.30
2022-11-24T05:38:23.863Z,5.30
2022-11-24T05:41:10.071Z,5.30
2022-11-24T05:43:55.734Z,5.30
2022-11-24T05:46:42.073Z,5.30
2022-11-24T05:49:27.875Z,5.30
2022-11-24T05:52:14.075Z,5.30
2022-11-24T05:54:59.601Z,5.30
2022-11-24T05:57:45.421Z,5.30
2022-11-24T06:00:32.552Z,5.30
2022-11-24T06:03:18.399Z,5.30
2022-11-24T06:06:04.575Z,5.30
2022-11-24T06:08:50.674Z,5.30
2022-11-24T06:11:36.292Z,5.20
2022-11-24T06:14:22.049Z,5.20
2022-11-24T06:17:10.208Z,5.10
2022-11-24T06:19:56.319Z,5.10
2022-11-24T06:22:41.894Z,5.10
2022-11-24T06:25:29.069Z,5.10
2022-11-24T06:28:15.138Z,5.00
2022-11-24T06:31:02.937Z,5.00
2022-11-24T06:33:48.622Z,5.10
2022-11-24T06:36:34.731Z,5.00
2022-11-24T06:39:20.579Z,5.00
2022-11-24T06:42:06.591Z,5.00
2022-11-24T06:44:53.795Z,5.00
2022-11-24T06:47:39.434Z,5.00
2022-11-24T06:50:30.594Z,5.00
2022-11-24T06:53:19.810Z,5.00
2022-11-24T06:56:13.810Z,5.00
2022-11-24T06:59:02.411Z,5.10
2022-11-24T07:01:48.983Z,5.00
2022-11-24T07:04:35.351Z,5.10
2022-11-24T07:07:21.469Z,5.10
2022-11-24T07:10:07.941Z,5.20
2022-11-24T07:12:53.480Z,5.30
2022-11-24T07:15:38.936Z,5.30
2022-11-24T07:18:24.907Z,5.20
2022-11-24T07:21:11.295Z,5.20
2022-11-24T07:23:58.116Z,5.20
2022-11-24T07:26:44.173Z,5.30
2022-11-24T07:29:30.864Z,5.30
2022-11-24T07:32:17.118Z,5.30
2022-11-24T07:35:03.400Z,5.40
2022-11-24T07:37:49.174Z,5.40
2022-11-24T07:40:34.934Z,5.40
2022-11-24T07:43:20.969Z,5.50
2022-11-24T07:46:11.048Z,5.50
2022-11-24T07:48:58.006Z,5.60
2022-11-24T07:51:43.703Z,5.60
2022-11-24T07:54:29.113Z,5.60
2022-11-24T07:57:14.397Z,5.70
2022-11-24T08:00:00.015Z,5.70
2022-11-24T08:02:46.071Z,5.70
2022-11-24T08:05:32.223Z,5.70
2022-11-24T08:08:17.637Z,5.70
2022-11-24T08:11:11.982Z,5.80
2022-11-24T08:13:57.928Z,5.80
2022-11-24T08:16:44.170Z,5.80
2022-11-24T08:19:32.170Z,5.90
2022-11-24T08:22:18.879Z,6.00
2022-11-24T08:25:05.036Z,6.00
2022-11-24T08:27:51.362Z,6.10
2022-11-24T08:30:37.644Z,6.20
2022-11-24T08:33:23.596Z,6.10
2022-11-24T08:36:12.447Z,6.20
2022-11-24T08:39:00.372Z,6.20
2022-11-24T08:41:47.056Z,6.20
2022-11-24T08:44:33.041Z,6.30
2022-11-24T08:47:19.331Z,6.30
2022-11-24T08:50:05.669Z,6.50
2022-11-24T08:52:53.586Z,6.50
2022-11-24T08:55:39.051Z,6.60
2022-11-24T08:58:24.413Z,6.60
2022-11-24T09:01:13.479Z,6.60
2022-11-24T09:04:00.334Z,6.70
2022-11-24T09:06:47.127Z,6.70
2022-11-24T09:09:33.184Z,6.80
2022-11-24T09:12:18.991Z,6.80
2022-11-24T09:15:06.083Z,7.00
2022-11-24T09:17:52.217Z,7.00
2022-11-24T09:20:37.792Z,7.10
2022-11-24T09:23:23.975Z,7.20
2022-11-24T09:26:35.009Z,7.20
2022-11-24T09:29:24.031Z,7.30
2022-11-24T09:32:10.399Z,7.40
2022-11-24T09:34:56.555Z,7.50
2022-11-24T09:37:44.752Z,7.50
2022-11-24T09:40:30.854Z,7.60
2022-11-24T09:43:39.558Z,7.60
2022-11-24T09:46:48.572Z,7.70
2022-11-24T09:49:39.507Z,7.80
2022-11-24T09:52:37.905Z,7.80
2022-11-24T09:55:40.574Z,7.90
2022-11-24T09:58:48.479Z,8.00
2022-11-24T10:01:37.481Z,8.00
2022-11-24T10:04:28.941Z,8.10
2022-11-24T10:07:38.205Z,8.10
2022-11-24T10:10:28.390Z,8.20
2022-11-24T10:13:35.592Z,8.30
2022-11-24T10:16:21.321Z,8.40
2022-11-24T10:19:40.588Z,8.40
2022-11-24T10:22:41.613Z,8.50
2022-11-24T10:25:45.596Z,8.50
2022-11-24T10:28:49.306Z,8.60
2022-11-24T10:31:37.075Z,8.60
2022-11-24T10:34:32.471Z,8.80
2022-11-24T10:37:40.467Z,8.90
2022-11-24T10:43:43.104Z,8.90
2022-11-24T10:46:33.602Z,8.90
2022-11-24T10:49:32.500Z,9.10
2022-11-24T10:52:20.071Z,9.20
2022-11-24T10:55:07.004Z,9.30
2022-11-24T10:57:53.551Z,9.40
2022-11-24T11:00:40.041Z,9.40
2022-11-24T11:03:32.929Z,9.50
2022-11-24T11:06:23.312Z,9.50
2022-11-24T11:09:09.883Z,9.50
2022-11-24T11:11:55.581Z,9.60
2022-11-24T11:14:41.509Z,9.60
2022-11-24T11:17:33.020Z,9.70
2022-11-24T11:20:27.845Z,9.80
2022-11-24T11:23:19.962Z,9.90
2022-11-24T11:26:25.274Z,10.00
2022-11-24T11:35:34.577Z,10.30
2022-11-24T11:38:21.391Z,10.40
2022-11-24T11:41:14.279Z,10.40
2022-11-24T11:44:21.519Z,10.50
2022-11-24T11:47:22.163Z,10.50
2022-11-24T11:50:22.454Z,10.50
2022-11-24T11:53:30.940Z,10.70
2022-11-24T11:56:25.907Z,10.80
2022-11-24T11:59:49.513Z,10.80
2022-11-24T12:03:00.391Z,10.90
2022-11-24T12:06:04.358Z,11.00
2022-11-24T12:09:19.890Z,11.10
2022-11-24T12:12:27.132Z,11.20
2022-11-24T12:15:42.086Z,11.20
2022-11-24T12:18:57.662Z,11.40
2022-11-24T12:21:44.197Z,11.40
2022-11-24T12:24:59.817Z,11.50
2022-11-24T12:28:11.715Z,11.60
2022-11-24T12:31:09.458Z,11.70
2022-11-24T12:34:22.955Z,11.80
2022-11-24T12:37:18.830Z,11.80
2022-11-24T12:40:32.269Z,12.00
2022-11-24T12:43:35.923Z,12.40
2022-11-24T12:46:56.976Z,12.20
2022-11-24T12:49:48.878Z,12.30
2022-11-24T12:52:52.877Z,12.40
2022-11-24T12:55:42.171Z,12.40
2022-11-24T12:58:56.336Z,12.60
2022-11-24T13:02:04.109Z,12.70
2022-11-24T13:05:22.698Z,12.80
2022-11-24T13:08:08.717Z,13.10
2022-11-24T13:10:56.238Z,13.10
2022-11-24T13:14:00.518Z,13.30
2022-11-24T13:20:23.626Z,13.40
2022-11-24T13:23:25.441Z,13.60
2022-11-24T13:26:27.959Z,13.70
2022-11-24T13:29:28.751Z,13.70
2022-11-24T13:32:15.305Z,14.00
2022-11-24T13:35:14.167Z,14.20
2022-11-24T13:37:59.799Z,14.30
2022-11-24T13:41:12.871Z,14.30
2022-11-24T13:44:13.710Z,14.40
2022-11-24T13:47:23.715Z,14.40
2022-11-24T13:50:23.978Z,14.40
2022-11-24T13:53:32.204Z,14.80
2022-11-24T13:56:18.047Z,15.10
2022-11-24T13:59:18.763Z,15.70
2022-11-24T14:02:21.359Z,17.40
2022-11-24T14:05:13.114Z,18.50
2022-11-24T14:07:59.236Z,19.30
2022-11-24T14:10:45.958Z,20.40
2022-11-24T14:13:34.735Z,20.90
2022-11-24T14:16:22.302Z,21.40
2022-11-24T14:19:11.939Z,21.80
2022-11-24T14:21:58.175Z,21.70
2022-11-24T14:24:45.375Z,21.80
2022-11-24T14:27:31.647Z,21.80
2022-11-24T14:30:21.129Z,21.30
2022-11-24T14:33:12.582Z,20.10
2022-11-24T14:35:58.438Z,18.80
2022-11-24T14:38:44.852Z,18.40
2022-11-24T14:41:31.704Z,19.10
2022-11-24T14:44:40.508Z,19.90
2022-11-24T14:47:32.425Z,19.50
2022-11-24T14:50:22.832Z,19.50
2022-11-24T14:53:15.122Z,19.20
2022-11-24T14:56:30.292Z,17.70
2022-11-24T14:59:24.951Z,16.80
2022-11-24T15:02:49.534Z,16.20
2022-11-24T15:05:56.387Z,15.80
2022-11-24T15:08:46.659Z,15.40
2022-11-24T15:11:34.308Z,15.10
2022-11-24T15:14:46.009Z,14.90
2022-11-24T15:17:31.857Z,14.80
2022-11-24T15:20:26.737Z,14.60
2022-11-24T15:23:32.744Z,14.40
2022-11-24T15:26:18.447Z,14.30
2022-11-24T15:29:04.106Z,14.20
2022-11-24T15:31:52.782Z,14.10
2022-11-24T15:34:38.998Z,13.90
2022-11-24T15:37:28.815Z,13.80
2022-11-24T15:40:18.324Z,13.70
2022-11-24T15:43:26.908Z,13.60
2022-11-24T15:46:13.466Z,13.40
2022-11-24T15:49:00.090Z,13.30
2022-11-24T15:51:47.147Z,13.10
2022-11-24T15:54:33.851Z,13.00
2022-11-24T15:57:21.083Z,12.90
2022-11-24T16:00:08.484Z,12.80
2022-11-24T16:03:02.019Z,12.70
2022-11-24T16:05:55.331Z,12.60
2022-11-24T16:08:41.304Z,12.50
2022-11-24T16:11:27.330Z,12.40
2022-11-24T16:14:12.864Z,12.30
2022-11-24T16:16:58.709Z,12.30
2022-11-24T16:19:44.690Z,12.20
2022-11-24T16:22:30.612Z,12.20
2022-11-24T16:25:16.515Z,12.10
2022-11-24T16:28:02.705Z,12.00
2022-11-24T16:30:52.538Z,11.90
2022-11-24T16:33:40.757Z,11.90
2022-11-24T16:36:28.127Z,11.80
2022-11-24T16:39:13.734Z,11.80
2022-11-24T16:41:59.392Z,11.70
2022-11-24T16:44:45.750Z,11.60
2022-11-24T16:47:31.585Z,11.50
2022-11-24T16:50:17.367Z,11.50
2022-11-24T16:53:03.376Z,11.50
2022-11-24T16:55:57.662Z,11.40
2022-11-24T16:58:44.620Z,11.30
2022-11-24T17:01:30.882Z,11.20
2022-11-24T17:04:18.005Z,11.20
2022-11-24T17:07:03.852Z,11.10
2022-11-24T17:09:50.113Z,11.10
2022-11-24T17:12:37.020Z,11.00
2022-11-24T17:15:34.526Z,10.90
2022-11-24T17:18:25.670Z,10.90
2022-11-24T17:21:17.172Z,10.90
2022-11-24T17:24:10.136Z,10.80
2022-11-24T17:26:56.386Z,10.80
2022-11-24T17:29:42.608Z,10.80
2022-11-24T17:32:27.992Z,10.80
2022-11-24T17:35:13.928Z,10.70
2022-11-24T17:38:01.190Z,10.70
2022-11-24T17:40:48.058Z,10.70
2022-11-24T17:43:33.999Z,10.60
2022-11-24T17:46:20.458Z,10.60
2022-11-24T17:49:08.307Z,10.50
2022-11-24T17:51:54.428Z,10.50
2022-11-24T17:54:46.463Z,10.50
2022-11-24T17:57:32.632Z,10.40
2022-11-24T18:00:18.544Z,10.40
2022-11-24T18:03:05.459Z,10.40
2022-11-24T18:05:51.555Z,10.40
2022-11-24T18:08:38.835Z,10.30
2022-11-24T18:11:31.463Z,10.30
2022-11-24T18:14:17.936Z,10.20
2022-11-24T18:17:03.543Z,10.20
2022-11-24T18:19:49.551Z,10.20
2022-11-24T18:23:04.013Z,10.20
2022-11-24T18:25:41.879Z,10.20
2022-11-24T18:28:27.713Z,10.10
2022-11-24T18:31:15.841Z,10.10
2022-11-24T18:34:02.869Z,10.10
2022-11-24T18:36:52.118Z,10.00
2022-11-24T18:39:42.061Z,10.00
2022-11-24T18:42:30.183Z,10.00
2022-11-24T18:45:16.071Z,10.00
2022-11-24T18:48:02.368Z,10.00
2022-11-24T18:50:53.327Z,9.90
2022-11-24T18:53:38.980Z,9.90
2022-11-24T18:56:25.323Z,9.90
2022-11-24T18:59:11.179Z,9.80
2022-11-24T19:01:58.017Z,9.70
2022-11-24T19:04:43.990Z,9.80
2022-11-24T19:07:29.924Z,9.80
2022-11-24T19:10:16.047Z,9.70
2022-11-24T19:13:03.066Z,9.70
2022-11-24T19:15:49.534Z,9.70
2022-11-24T19:18:36.069Z,9.70
2022-11-24T19:21:22.737Z,9.60
2022-11-24T19:24:10.110Z,9.60
2022-11-24T19:26:56.776Z,9.60
2022-11-24T19:29:43.431Z,9.50
2022-11-24T19:32:32.464Z,9.50
2022-11-24T19:35:18.611Z,9.40
2022-11-24T19:38:04.373Z,9.40
2022-11-24T19:40:50.328Z,9.40
2022-11-24T19:43:36.980Z,9.40
2022-11-24T19:46:27.642Z,9.30
2022-11-24T19:49:16.437Z,9.30
2022-11-24T19:52:02.675Z,9.30
2022-11-24T19:54:48.455Z,9.30
2022-11-24T19:57:34.959Z,9.30
2022-11-24T20:00:20.863Z,9.30
2022-11-24T20:03:06.556Z,9.20
2022-11-24T20:05:56.486Z,9.20
2022-11-24T20:08:43.563Z,9.20
2022-11-24T20:11:29.712Z,9.20
2022-11-24T20:14:18.358Z,9.20
2022-11-24T20:17:06.576Z,9.20
2022-11-24T20:19:53.017Z,9.20
2022-11-24T20:22:38.548Z,9.20
2022-11-24T20:25:24.340Z,9.10
2022-11-24T20:28:10.554Z,9.10
2022-11-24T20:30:56.275Z,9.00
2022-11-24T20:33:42.248Z,9.00
2022-11-24T20:36:30.828Z,9.00
2022-11-24T20:39:20.110Z,9.10
2022-11-24T20:42:07.369Z,9.00
2022-11-24T20:44:53.560Z,9.00
2022-11-24T20:47:39.414Z,9.00
2022-11-24T20:50:24.964Z,9.00
2022-11-24T20:53:10.735Z,9.00
2022-11-24T20:56:06.122Z,9.00
2022-11-24T20:58:53.417Z,9.00
2022-11-24T21:01:42.494Z,8.90
2022-11-24T21:04:28.515Z,8.80
2022-11-24T21:07:15.787Z,8.90
2022-11-24T21:10:02.181Z,8.90
2022-11-24T21:12:48.344Z,8.90
2022-11-24T21:15:33.801Z,8.90
2022-11-24T21:18:21.441Z,8.90
2022-11-24T21:21:07.955Z,8.80
2022-11-24T21:23:53.727Z,8.70
2022-11-24T21:26:41.310Z,8.80
2022-11-24T21:29:27.041Z,8.90
2022-11-24T21:32:12.591Z,8.90
2022-11-24T21:34:58.568Z,8.90
2022-11-24T21:37:44.934Z,8.90
2022-11-24T21:40:31.200Z,8.90
2022-11-24T21:43:17.333Z,9.00
2022-11-24T21:46:07.369Z,9.00
2022-11-24T21:48:54.341Z,9.00
2022-11-24T21:51:40.731Z,8.90
2022-11-24T21:54:26.295Z,8.90
2022-11-24T21:57:11.808Z,9.00
2022-11-24T21:59:57.928Z,9.00
2022-11-24T22:02:43.995Z,8.90
2022-11-24T22:05:29.631Z,8.90
2022-11-24T22:08:15.840Z,8.90
2022-11-24T22:11:06.746Z,8.90
2022-11-24T22:13:52.848Z,8.80
2022-11-24T22:16:39.214Z,8.90
2022-11-24T22:19:24.770Z,8.80
2022-11-24T22:22:10.323Z,8.90
2022-11-24T22:24:58.308Z,9.00
2022-11-24T22:27:43.828Z,9.00
2022-11-24T22:30:30.095Z,9.00
2022-11-24T22:33:16.130Z,9.00
2022-11-24T22:36:03.032Z,9.00
2022-11-24T22:38:54.326Z,9.10
2022-11-24T22:41:40.397Z,9.00
2022-11-24T22:44:26.833Z,9.10
2022-11-24T22:47:12.300Z,9.10
2022-11-24T22:49:57.827Z,9.10
2022-11-24T22:52:43.702Z,9.10
2022-11-24T22:55:29.791Z,9.10
2022-11-24T22:58:16.285Z,9.10
2022-11-24T23:01:11.582Z,9.10
2022-11-24T23:03:57.229Z,9.10
2022-11-24T23:06:43.426Z,9.00
2022-11-24T23:09:29.314Z,9.00
2022-11-24T23:12:14.995Z,9.00
2022-11-24T23:15:01.296Z,9.00
2022-11-24T23:17:47.823Z,8.90
2022-11-24T23:20:34.875Z,8.90
2022-11-24T23:23:20.733Z,8.90
2022-11-24T23:26:09.287Z,8.90
2022-11-24T23:28:55.339Z,8.90
2022-11-24T23:31:41.731Z,8.80
2022-11-24T23:34:27.449Z,8.80
2022-11-24T23:37:13.333Z,8.90
2022-11-24T23:40:00.543Z,8.80
2022-11-24T23:42:49.518Z,8.80
2022-11-24T23:45:35.956Z,8.80
2022-11-24T23:48:22.156Z,8.70
2022-11-24T23:51:13.259Z,8.60
2022-11-24T23:54:00.147Z,8.70
2022-11-24T23:56:46.573Z,8.70
2022-11-24T23:59:32.351Z,8.70
